createdAt,value
2019-01-12T00:04:59.563Z,0
2019-01-12T00:09:59.551Z,0
2019-01-12T00:14:59.432Z,0
2019-01-12T00:19:59.287Z,0
2019-01-12T00:24:59.536Z,0
2019-01-12T00:29:59.201Z,0
2019-01-12T00:34:59.195Z,0
2019-01-12T00:39:59.248Z,0
2019-01-12T00:44:59.425Z,0
2019-01-12T00:49:59.182Z,0
2019-01-12T00:54:59.442Z,0
2019-01-12T00:59:59.583Z,0
2019-01-12T01:04:59.617Z,0
2019-01-12T01:09:59.509Z,0
2019-01-12T01:14:59.343Z,0
2019-01-12T01:19:59.477Z,0
2019-01-12T01:24:59.346Z,0
2019-01-12T01:29:59.475Z,0
2019-01-12T01:34:59.113Z,0
2019-01-12T01:39:59.060Z,0
2019-01-12T01:44:59.245Z,0
2019-01-12T01:49:59.158Z,0
2019-01-12T01:54:59.238Z,0
2019-01-12T01:59:59.775Z,0
2019-01-12T02:04:59.170Z,0
2019-01-12T02:09:59.295Z,0
2019-01-12T02:14:59.546Z,0
2019-01-12T02:19:59.164Z,0
2019-01-12T02:25:00.132Z,0
2019-01-12T02:29:59.307Z,0
2019-01-12T02:34:59.055Z,0
2019-01-12T02:39:59.295Z,0
2019-01-12T02:44:59.001Z,0
2019-01-12T02:49:59.275Z,0
2019-01-12T02:54:59.053Z,0
2019-01-12T03:00:24.689Z,0
2019-01-12T03:04:59.044Z,0
2019-01-12T03:09:59.299Z,0
2019-01-12T03:14:59.334Z,0
2019-01-12T03:19:59.168Z,0
2019-01-12T03:24:59.314Z,0
2019-01-12T03:29:58.972Z,0
2019-01-12T03:34:59.165Z,0
2019-01-12T03:39:58.933Z,0
2019-01-12T03:45:00.714Z,0
2019-01-12T03:49:59.341Z,0
2019-01-12T03:54:59.518Z,0
2019-01-12T03:59:59.003Z,0
2019-01-12T04:04:59.128Z,0
2019-01-12T04:09:58.973Z,0
2019-01-12T04:14:58.988Z,0
2019-01-12T04:19:59.338Z,0
2019-01-12T04:24:58.867Z,0
2019-01-12T04:29:59.232Z,0
2019-01-12T04:34:58.970Z,0
2019-01-12T04:39:58.967Z,0
2019-01-12T04:44:59.126Z,0
2019-01-12T04:49:59.117Z,0
2019-01-12T04:54:59.194Z,0
2019-01-12T04:59:59.384Z,0
2019-01-12T05:04:58.829Z,0
2019-01-12T05:09:59.077Z,0
2019-01-12T05:14:59.025Z,0
2019-01-12T05:19:59.159Z,0
2019-01-12T05:24:58.921Z,0
2019-01-12T05:29:58.809Z,0
2019-01-12T05:34:58.911Z,0
2019-01-12T05:39:58.817Z,0
2019-01-12T05:44:58.851Z,0
2019-01-12T05:49:58.861Z,0
2019-01-12T05:54:58.925Z,0
2019-01-12T05:59:59.118Z,0
2019-01-12T06:04:59.002Z,0
2019-01-12T06:09:59.044Z,0
2019-01-12T06:14:58.909Z,0
2019-01-12T06:19:58.750Z,0
2019-01-12T06:24:59.044Z,0
2019-01-12T06:29:59.004Z,0
2019-01-12T06:34:58.956Z,0
2019-01-12T06:39:58.724Z,0
2019-01-12T06:44:59.100Z,0
2019-01-12T06:49:58.952Z,0
2019-01-12T06:54:58.718Z,0
2019-01-12T06:59:58.901Z,0
2019-01-12T07:04:58.659Z,0
2019-01-12T07:09:58.738Z,0
2019-01-12T07:14:58.915Z,0
2019-01-12T07:19:58.944Z,0
2019-01-12T07:24:58.638Z,0
2019-01-12T07:29:59.014Z,0
2019-01-12T07:34:58.894Z,0
2019-01-12T07:39:58.684Z,0
2019-01-12T07:44:58.713Z,0
2019-01-12T07:49:58.773Z,0
2019-01-12T07:54:58.707Z,0.8
2019-01-12T07:59:58.799Z,0.8
2019-01-12T08:04:58.567Z,2.5
2019-01-12T08:09:58.735Z,1.7
2019-01-12T08:14:58.832Z,1.7
2019-01-12T08:19:58.615Z,2.5
2019-01-12T08:24:58.903Z,3.3
2019-01-12T08:29:58.578Z,2.5
2019-01-12T08:34:58.610Z,1.7
2019-01-12T08:39:58.795Z,1.7
2019-01-12T08:44:58.803Z,2.5
2019-01-12T08:49:58.785Z,3.3
2019-01-12T08:54:59.419Z,1.7
2019-01-12T08:59:59.391Z,3.3
2019-01-12T09:04:58.522Z,3.3
2019-01-12T09:09:58.573Z,4.2
2019-01-12T09:14:58.660Z,4.2
2019-01-12T09:19:58.554Z,4.2
2019-01-12T09:24:58.788Z,5
2019-01-12T09:29:58.474Z,3.3
2019-01-12T09:34:58.563Z,2.5
2019-01-12T09:39:58.579Z,3.3
2019-01-12T09:44:58.733Z,3.3
2019-01-12T09:49:58.661Z,3.3
2019-01-12T09:54:58.506Z,3.3
2019-01-12T09:59:59.139Z,5
2019-01-12T10:05:06.257Z,6.7
2019-01-12T10:09:58.562Z,9.2
2019-01-12T10:14:58.671Z,10
2019-01-12T10:19:58.705Z,10
2019-01-12T10:24:58.681Z,9.2
2019-01-12T10:29:58.778Z,10
2019-01-12T10:34:58.671Z,8.3
2019-01-12T10:39:58.614Z,10
2019-01-12T10:44:58.411Z,10
2019-01-12T10:49:58.440Z,8.3
2019-01-12T10:54:58.573Z,9.2
2019-01-12T10:59:58.743Z,8.3
2019-01-12T11:04:58.492Z,10.8
2019-01-12T11:10:04.116Z,14.2
2019-01-12T11:14:58.368Z,10.8
2019-01-12T11:19:58.582Z,9.2
2019-01-12T11:24:58.252Z,11.7
2019-01-12T11:29:58.562Z,11.7
2019-01-12T11:34:58.482Z,10
2019-01-12T11:39:58.459Z,13.3
2019-01-12T11:44:58.547Z,20
2019-01-12T11:49:58.551Z,20
2019-01-12T11:54:58.281Z,12.5
2019-01-12T11:59:58.323Z,9.2
2019-01-12T12:04:58.506Z,14.2
2019-01-12T12:09:58.339Z,23.3
2019-01-12T12:14:58.370Z,12.5
2019-01-12T12:19:58.478Z,15
2019-01-12T12:24:58.538Z,15
2019-01-12T12:29:58.705Z,8.3
2019-01-12T12:34:58.276Z,18.3
2019-01-12T12:39:58.646Z,10.8
2019-01-12T12:44:58.507Z,10
2019-01-12T12:49:58.506Z,7.5
2019-01-12T12:54:58.391Z,6.7
2019-01-12T12:59:58.668Z,8.3
2019-01-12T13:04:58.508Z,8.3
2019-01-12T13:09:58.274Z,17.5
2019-01-12T13:14:58.435Z,4.2
2019-01-12T13:19:58.609Z,4.2
2019-01-12T13:24:58.567Z,10.8
2019-01-12T13:29:58.535Z,14.2
2019-01-12T13:34:58.547Z,6.7
2019-01-12T13:39:58.610Z,12.5
2019-01-12T13:44:58.604Z,15.8
2019-01-12T13:49:58.339Z,20.8
2019-01-12T13:54:58.547Z,17.5
2019-01-12T13:59:58.544Z,20.8
2019-01-12T14:04:58.993Z,14.2
2019-01-12T14:09:58.923Z,25
2019-01-12T14:14:58.277Z,18.3
2019-01-12T14:19:58.510Z,15.8
2019-01-12T14:24:58.939Z,9.2
2019-01-12T14:29:58.424Z,10
2019-01-12T14:34:58.893Z,10.8
2019-01-12T14:40:48.853Z,10.8
2019-01-12T14:44:58.143Z,8.3
2019-01-12T14:49:58.285Z,5
2019-01-12T14:54:58.480Z,1.7
2019-01-12T14:59:58.592Z,0.8
2019-01-12T15:04:58.379Z,0.8
2019-01-12T15:09:58.485Z,0.8
2019-01-12T15:14:58.582Z,1.7
2019-01-12T15:19:58.290Z,4.2
2019-01-12T15:24:58.296Z,2.5
2019-01-12T15:29:57.978Z,0.8
2019-01-12T15:34:58.499Z,0.8
2019-01-12T15:39:58.296Z,0.8
2019-01-12T15:44:58.499Z,0.8
2019-01-12T15:49:58.194Z,0
2019-01-12T15:54:58.393Z,0
2019-01-12T16:00:00.397Z,0
2019-01-12T16:05:00.639Z,0
2019-01-12T16:10:00.491Z,0
2019-01-12T16:15:00.429Z,0
2019-01-12T16:20:00.390Z,0
2019-01-12T16:25:00.289Z,0
2019-01-12T16:30:00.279Z,0
2019-01-12T16:35:00.319Z,0
2019-01-12T16:40:00.300Z,0
2019-01-12T16:45:00.499Z,0
2019-01-12T16:50:00.480Z,0
2019-01-12T16:55:00.423Z,0
2019-01-12T17:00:00.364Z,0
2019-01-12T17:05:02.025Z,0
2019-01-12T17:10:00.306Z,0
2019-01-12T17:15:00.455Z,0
2019-01-12T17:20:00.354Z,0
2019-01-12T17:25:00.261Z,0
2019-01-12T17:30:00.243Z,0
2019-01-12T17:35:00.119Z,0
2019-01-12T17:40:00.156Z,0
2019-01-12T17:45:00.055Z,0
2019-01-12T17:50:00.387Z,0
2019-01-12T17:55:00.168Z,0
2019-01-12T18:00:00.368Z,0
2019-01-12T18:05:48.555Z,0
2019-01-12T18:10:00.271Z,0
2019-01-12T18:15:00.329Z,0
2019-01-12T18:20:00.332Z,0
2019-01-12T18:25:00.328Z,0
2019-01-12T18:30:00.242Z,0
2019-01-12T18:35:00.285Z,0
2019-01-12T18:40:00.000Z,0
2019-01-12T18:45:00.788Z,0
2019-01-12T18:50:00.169Z,0
2019-01-12T18:55:00.289Z,0
2019-01-12T19:00:00.408Z,0
2019-01-12T19:05:00.346Z,0
2019-01-12T19:09:59.987Z,0
2019-01-12T19:15:00.301Z,0
2019-01-12T19:19:59.866Z,0
2019-01-12T19:24:59.891Z,0
2019-01-12T19:30:00.175Z,0
2019-01-12T19:34:59.908Z,0
2019-01-12T19:40:00.289Z,0
2019-01-12T19:45:00.290Z,0
2019-01-12T19:50:00.357Z,0
2019-01-12T19:54:59.995Z,0
2019-01-12T20:00:00.219Z,0
2019-01-12T20:05:00.510Z,0
2019-01-12T20:10:00.315Z,0
2019-01-12T20:14:59.925Z,0
2019-01-12T20:19:59.829Z,0
2019-01-12T20:25:00.057Z,0
2019-01-12T20:30:00.207Z,0
2019-01-12T20:35:00.245Z,0
2019-01-12T20:39:59.891Z,0
2019-01-12T20:44:59.873Z,0
2019-01-12T20:49:59.891Z,0
2019-01-12T20:55:00.198Z,0
2019-01-12T21:00:00.254Z,0
2019-01-12T21:04:59.835Z,0
2019-01-12T21:09:59.942Z,0
2019-01-12T21:14:59.918Z,0
2019-01-12T21:19:59.897Z,0
2019-01-12T21:25:00.092Z,0
2019-01-12T21:29:59.722Z,0
2019-01-12T21:34:59.949Z,0
2019-01-12T21:39:59.984Z,0
2019-01-12T21:44:59.784Z,0
2019-01-12T21:50:00.032Z,0
2019-01-12T21:55:00.220Z,0
2019-01-12T21:59:59.967Z,0
2019-01-12T22:06:04.191Z,0
2019-01-12T22:10:00.158Z,0
2019-01-12T22:15:00.370Z,0
2019-01-12T22:19:59.858Z,0
2019-01-12T22:24:59.809Z,0
2019-01-12T22:30:00.372Z,0
2019-01-12T22:34:59.888Z,0
2019-01-12T22:39:59.861Z,0
2019-01-12T22:44:59.905Z,0
2019-01-12T22:49:59.947Z,0
2019-01-12T22:54:59.780Z,0
2019-01-12T22:59:59.872Z,0
2019-01-12T23:05:00.029Z,0
2019-01-12T23:10:00.022Z,0
2019-01-12T23:14:59.937Z,0
2019-01-12T23:19:59.684Z,0
2019-01-12T23:25:00.163Z,0
2019-01-12T23:30:04.432Z,0
2019-01-12T23:34:59.931Z,0
2019-01-12T23:39:59.765Z,0
2019-01-12T23:44:59.977Z,0
2019-01-12T23:49:59.534Z,0
2019-01-12T23:54:59.887Z,0
